Time;durP1;ratioP1;P1;durP2;ratioP2;P2;SDS_P1;SDS_P2;PMS_P1;PMS_P2;Temp;Humidity;BMP_temperature;BMP_pressure;BME280_temperature;BME280_humidity;BME280_pressure;Samples;Min_cycle;Max_cycle;Signal;HPM_P1;HPM_P2
2022/03/29 00:01:37;;;;;;;32.88;17.25;;;;;;;3.81;52.16;97691.69;1760938;81;21050;-80
2022/03/29 00:04:04;;;;;;;34.33;18.35;;;;;;;3.77;50.20;97679.91;1761531;81;21462;-80
2022/03/29 00:06:30;;;;;;;37.95;19.15;;;;;;;3.75;49.77;97679.06;1761196;81;21023;-80
2022/03/29 00:08:58;;;;;;;32.53;18.10;;;;;;;3.71;49.99;97672.97;1772750;80;21043;-80
2022/03/29 00:11:25;;;;;;;33.42;18.35;;;;;;;3.69;49.64;97672.09;1774864;81;21059;-80
2022/03/29 00:13:51;;;;;;;39.73;20.50;;;;;;;3.65;49.24;97663.39;1775329;81;21015;-80
2022/03/29 00:16:18;;;;;;;38.63;21.02;;;;;;;3.64;50.29;97660.78;1775286;81;21008;-80
2022/03/29 00:18:44;;;;;;;35.25;20.05;;;;;;;3.61;49.98;97662.98;1764721;81;21503;-79
2022/03/29 00:21:11;;;;;;;38.63;20.75;;;;;;;3.60;49.33;97665.18;1761652;81;21030;-80
2022/03/29 00:23:37;;;;;;;38.17;19.50;;;;;;;3.59;49.18;97664.76;1732121;81;20999;-79
2022/03/29 00:26:04;;;;;;;36.15;18.25;;;;;;;3.59;49.32;97658.63;1779987;81;21043;-80
2022/03/29 00:28:30;;;;;;;32.00;17.40;;;;;;;3.54;50.85;97652.98;1782384;80;21346;-80
2022/03/29 00:30:57;;;;;;;28.32;16.15;;;;;;;3.49;50.79;97652.60;1777524;81;21003;-80
2022/03/29 00:33:23;;;;;;;27.35;15.48;;;;;;;3.49;50.68;97642.12;1777368;81;21016;-80
2022/03/29 00:35:49;;;;;;;29.05;15.78;;;;;;;3.50;50.37;97643.85;1777406;80;21399;-80
2022/03/29 00:38:16;;;;;;;29.27;15.20;;;;;;;3.53;50.81;97638.61;1745186;82;21022;-80
2022/03/29 00:40:42;;;;;;;27.20;15.70;;;;;;;3.54;52.20;97631.16;1777427;81;21024;-80
2022/03/29 00:43:12;;;;;;;25.62;14.98;;;;;;;3.55;51.42;97629.85;1777404;81;21028;-80
2022/03/29 00:45:38;;;;;;;24.87;14.63;;;;;;;3.58;52.34;97625.03;1779342;79;21110;-80
2022/03/29 00:48:08;;;;;;;28.87;14.40;;;;;;;3.60;51.48;97621.94;1790456;79;21050;-81
2022/03/29 00:50:37;;;;;;;28.50;14.55;;;;;;;3.60;51.97;97619.75;1790745;80;20978;-82
2022/03/29 00:53:05;;;;;;;26.97;14.47;;;;;;;3.60;50.73;97615.81;1790458;80;20982;-81
2022/03/29 00:55:32;;;;;;;29.50;15.40;;;;;;;3.59;51.48;97609.73;1791319;79;21439;-81
2022/03/29 00:58:03;;;;;;;25.37;12.95;;;;;;;3.54;52.60;97607.59;1803358;79;20984;-80
2022/03/29 01:00:32;;;;;;;33.13;14.93;;;;;;;3.52;50.77;97610.64;1803480;79;20991;-80
2022/03/29 01:03:01;;;;;;;24.92;14.25;;;;;;;3.48;53.22;97607.64;1803561;79;20963;-80
2022/03/29 01:05:27;;;;;;;30.48;13.32;;;;;;;3.45;51.27;97614.20;1803115;79;21008;-80
2022/03/29 01:07:56;;;;;;;25.75;13.95;;;;;;;3.40;52.33;97603.31;1803026;79;20984;-80
2022/03/29 01:10:24;;;;;;;32.20;16.57;;;;;;;3.39;51.67;97599.38;1803455;79;21458;-80
2022/03/29 01:12:52;;;;;;;29.63;15.85;;;;;;;3.36;52.13;97600.73;1803532;79;21086;-80
2022/03/29 01:15:20;;;;;;;29.42;16.70;;;;;;;3.22;52.42;97597.76;1803087;79;21019;-79
2022/03/29 01:17:47;;;;;;;30.90;16.55;;;;;;;3.12;53.86;97602.63;1790811;79;21068;-79
2022/03/29 01:20:22;;;;;;;26.23;14.78;;;;;;;3.02;53.13;97600.06;1790479;80;21017;-80
2022/03/29 01:22:51;;;;;;;28.73;15.03;;;;;;;2.94;54.49;97599.22;1790272;80;21506;-80
2022/03/29 01:25:22;;;;;;;25.90;14.78;;;;;;;2.86;54.73;97597.95;1790662;80;21014;-81
2022/03/29 01:27:52;;;;;;;29.42;14.95;;;;;;;2.84;54.19;97593.61;1788177;78;21414;-81
2022/03/29 01:30:21;;;;;;;25.35;13.70;;;;;;;2.78;54.69;97589.27;1787770;80;21039;-81
2022/03/29 01:32:51;;;;;;;27.40;14.30;;;;;;;2.75;54.06;97585.37;1787862;80;21398;-81
2022/03/29 01:35:21;;;;;;;25.52;13.65;;;;;;;2.75;54.92;97582.30;1787585;80;21333;-81
2022/03/29 01:37:49;;;;;;;22.50;12.88;;;;;;;2.75;54.75;97573.59;1790682;79;21021;-81
2022/03/29 01:40:19;;;;;;;23.35;12.53;;;;;;;2.73;55.16;97574.02;1790588;80;21080;-80
2022/03/29 01:42:54;;;;;;;25.10;13.00;;;;;;;2.73;53.94;97568.80;1790260;80;21029;-80
2022/03/29 01:45:24;;;;;;;25.00;12.88;;;;;;;2.74;53.60;97567.94;1797028;79;21023;-81
2022/03/29 01:47:51;;;;;;;23.83;12.75;;;;;;;2.76;53.73;97559.63;1809077;79;21031;-81
2022/03/29 01:50:17;;;;;;;21.40;12.55;;;;;;;2.76;53.91;97558.31;1809234;79;21058;-81
2022/03/29 01:52:46;;;;;;;25.32;13.70;;;;;;;2.76;54.50;97557.89;1809654;79;21046;-81
2022/03/29 01:55:17;;;;;;;23.27;12.70;;;;;;;2.75;54.22;97555.28;1802096;79;21061;-81
2022/03/29 01:57:45;;;;;;;22.25;12.80;;;;;;;2.71;54.26;97547.89;1795814;80;21077;-81
2022/03/29 02:00:32;;;;;;;20.00;11.45;;;;;;;2.68;54.09;97543.09;1796483;80;21490;-81
2022/03/29 02:03:02;;;;;;;20.27;11.30;;;;;;;2.68;54.37;97557.48;1796180;80;21060;-80
2022/03/29 02:05:33;;;;;;;22.07;12.35;;;;;;;2.68;54.13;97549.20;1804841;79;21433;-80
2022/03/29 02:08:01;;;;;;;24.85;12.50;;;;;;;2.66;55.40;97539.63;1809417;79;20996;-81
2022/03/29 02:10:29;;;;;;;18.80;11.65;;;;;;;2.67;55.07;97543.55;1809172;79;21051;-80
2022/03/29 02:12:56;;;;;;;23.22;13.03;;;;;;;2.66;55.48;97539.20;1809436;79;21035;-81
2022/03/29 02:15:22;;;;;;;24.35;13.13;;;;;;;2.65;55.32;97542.67;1801595;79;21041;-81
2022/03/29 02:17:49;;;;;;;24.80;13.40;;;;;;;2.64;54.67;97538.31;1796097;80;21104;-81
2022/03/29 02:20:17;;;;;;;22.35;12.33;;;;;;;2.62;54.35;97528.31;1796499;80;20998;-81
2022/03/29 02:22:44;;;;;;;22.50;11.95;;;;;;;2.56;55.65;97534.44;1796481;80;21376;-81
2022/03/29 02:25:12;;;;;;;23.67;12.40;;;;;;;2.49;55.93;97532.28;1802865;79;21026;-82
2022/03/29 02:27:43;;;;;;;22.45;11.38;;;;;;;2.46;56.18;97524.89;1803045;79;20989;-83
2022/03/29 02:30:15;;;;;;;19.57;11.15;;;;;;;2.45;55.24;97535.78;1776989;81;21446;-81
2022/03/29 02:32:44;;;;;;;22.62;12.70;;;;;;;2.43;55.84;97528.82;1776958;81;21060;-81
2022/03/29 02:35:11;;;;;;;26.23;11.88;;;;;;;2.36;56.32;97519.70;1792927;79;21059;-81
2022/03/29 02:37:38;;;;;;;24.37;11.73;;;;;;;2.40;55.49;97521.01;1809544;79;20995;-81
2022/03/29 02:40:06;;;;;;;19.10;11.70;;;;;;;2.36;56.01;97513.59;1809317;79;21472;-81
2022/03/29 02:42:43;;;;;;;23.20;13.40;;;;;;;2.38;55.85;97519.70;1809433;79;21051;-81
2022/03/29 02:45:15;;;;;;;26.73;12.40;;;;;;;2.34;55.45;97516.23;1803315;79;21013;-80
2022/03/29 02:47:52;;;;;;;28.27;13.13;;;;;;;2.30;55.11;97511.02;1793113;80;21101;-80
2022/03/29 02:50:20;;;;;;;20.88;11.90;;;;;;;2.24;57.07;97518.43;1793220;80;20978;-81
2022/03/29 02:52:49;;;;;;;25.88;11.73;;;;;;;2.22;56.34;97521.50;1794462;79;21444;-81
2022/03/29 02:55:18;;;;;;;21.45;12.00;;;;;;;2.18;56.59;97515.42;1803472;79;21055;-80
2022/03/29 02:57:46;;;;;;;22.45;12.07;;;;;;;2.19;56.12;97512.35;1803295;79;21083;-80
2022/03/29 03:00:16;;;;;;;24.70;11.68;;;;;;;2.14;56.36;97509.77;1803156;79;20979;-80
2022/03/29 03:02:49;;;;;;;21.73;11.78;;;;;;;2.14;56.42;97504.97;1801769;79;21067;-81
2022/03/29 03:05:19;;;;;;;20.30;11.05;;;;;;;2.16;55.58;97508.00;1790198;80;21092;-80
2022/03/29 03:07:46;;;;;;;21.23;12.00;;;;;;;2.17;55.21;97504.97;1789999;80;21030;-80
2022/03/29 03:10:14;;;;;;;22.77;11.90;;;;;;;2.16;55.83;97500.16;1797388;79;21070;-81
2022/03/29 03:12:44;;;;;;;21.27;10.58;;;;;;;2.19;55.16;97501.89;1803273;79;21038;-80
2022/03/29 03:15:14;;;;;;;22.85;11.73;;;;;;;2.14;55.01;97504.54;1803267;79;20992;-80
2022/03/29 03:17:42;;;;;;;23.67;11.03;;;;;;;2.14;55.00;97488.85;1803434;79;21026;-80
2022/03/29 03:20:10;;;;;;;22.20;11.03;;;;;;;2.18;55.18;97500.16;1797361;79;21040;-80
2022/03/29 03:22:39;;;;;;;22.30;10.70;;;;;;;2.17;54.88;97491.47;1790564;80;21423;-80
2022/03/29 03:25:08;;;;;;;23.32;10.85;;;;;;;2.14;54.63;97487.55;1790590;80;21033;-80
2022/03/29 03:27:34;;;;;;;23.77;12.33;;;;;;;2.11;54.58;97488.85;1790698;78;21494;-80
2022/03/29 03:30:06;;;;;;;24.37;12.35;;;;;;;2.07;54.71;97493.23;1789180;79;20986;-80
2022/03/29 03:32:33;;;;;;;22.93;12.30;;;;;;;2.08;55.06;97496.27;1790755;80;21002;-80
2022/03/29 03:34:59;;;;;;;19.25;11.40;;;;;;;2.05;54.79;97488.46;1790450;80;21011;-80
2022/03/29 03:37:26;;;;;;;21.02;10.43;;;;;;;2.02;55.68;97491.08;1790677;80;21057;-81
2022/03/29 03:39:53;;;;;;;22.85;11.03;;;;;;;2.04;55.64;97489.31;1794635;79;21425;-81
2022/03/29 03:42:20;;;;;;;23.92;11.57;;;;;;;2.06;55.24;97491.50;1803391;79;20972;-81
2022/03/29 03:44:46;;;;;;;18.65;10.45;;;;;;;2.06;54.93;97491.50;1803582;79;21043;-81
2022/03/29 03:47:13;;;;;;;21.70;11.03;;;;;;;2.02;54.80;97489.77;1803297;79;21004;-81
2022/03/29 03:49:39;;;;;;;22.62;10.65;;;;;;;2.06;56.11;97494.54;1791540;79;21415;-81
2022/03/29 03:52:08;;;;;;;21.73;11.33;;;;;;;2.05;55.32;97492.81;1790773;80;21044;-81
2022/03/29 03:54:38;;;;;;;20.88;11.35;;;;;;;2.04;54.96;97479.31;1790771;80;21415;-81
2022/03/29 03:57:06;;;;;;;23.65;11.70;;;;;;;2.02;54.76;97483.23;1797095;79;21003;-81
2022/03/29 03:59:33;;;;;;;20.72;11.05;;;;;;;2.00;54.77;97484.12;1803500;79;21055;-81
2022/03/29 04:02:00;;;;;;;32.85;11.80;;;;;;;1.98;55.61;97481.50;1803417;79;20979;-81
2022/03/29 04:04:27;;;;;;;25.37;11.88;;;;;;;1.96;55.70;97476.73;1803215;79;21103;-81
2022/03/29 04:06:53;;;;;;;19.70;10.80;;;;;;;1.91;55.23;97475.88;1797898;79;20974;-80
2022/03/29 04:09:20;;;;;;;22.65;11.65;;;;;;;1.89;55.34;97475.88;1759660;80;21010;-81
2022/03/29 04:11:48;;;;;;;18.42;11.33;;;;;;;1.89;55.61;97477.61;1790619;80;21018;-81
2022/03/29 04:14:15;;;;;;;27.55;12.45;;;;;;;1.87;55.39;97473.69;1790674;80;21090;-81
2022/03/29 04:16:42;;;;;;;22.87;11.60;;;;;;;1.86;55.28;97476.33;1794803;79;21020;-81
2022/03/29 04:19:09;;;;;;;24.57;12.18;;;;;;;1.87;55.62;97469.77;1803686;79;21015;-80
2022/03/29 04:21:35;;;;;;;28.10;13.20;;;;;;;1.84;55.42;97468.48;1803634;79;21016;-79
2022/03/29 04:24:02;;;;;;;23.12;12.07;;;;;;;1.78;55.25;97457.61;1802812;79;21016;-80
2022/03/29 04:26:30;;;;;;;22.58;12.40;;;;;;;1.76;55.70;97472.86;1803092;79;21012;-79
2022/03/29 04:28:57;;;;;;;26.52;11.60;;;;;;;1.73;55.55;97471.58;1791421;79;20973;-79
2022/03/29 04:31:23;;;;;;;28.92;12.82;;;;;;;1.71;55.71;97471.58;1787670;80;21024;-79
2022/03/29 04:33:49;;;;;;;27.77;13.55;;;;;;;1.70;55.64;97475.92;1787834;80;21425;-79
2022/03/29 04:36:16;;;;;;;23.25;11.45;;;;;;;1.66;56.85;97477.25;1788384;79;21084;-79
2022/03/29 04:38:43;;;;;;;25.12;11.97;;;;;;;1.62;56.66;97477.67;1790568;80;20990;-79
2022/03/29 04:41:10;;;;;;;26.95;12.93;;;;;;;1.64;56.28;97481.17;1790567;80;21041;-80
2022/03/29 04:43:37;;;;;;;26.68;11.73;;;;;;;1.62;56.44;97478.98;1790307;80;21037;-79
2022/03/29 04:46:03;;;;;;;22.45;13.28;;;;;;;1.61;56.32;97482.92;1790543;79;21013;-79
2022/03/29 04:48:30;;;;;;;28.50;12.85;;;;;;;1.60;58.17;97484.66;1803374;79;21066;-79
2022/03/29 04:50:57;;;;;;;24.80;13.25;;;;;;;1.57;57.13;97481.61;1803536;79;21394;-79
2022/03/29 04:53:23;;;;;;;28.32;13.05;;;;;;;1.55;57.45;97471.62;1803345;79;20972;-79
2022/03/29 04:55:52;;;;;;;26.93;13.58;;;;;;;1.59;56.49;97479.00;1798520;79;20960;-79
2022/03/29 04:58:20;;;;;;;25.65;12.98;;;;;;;1.61;56.62;97473.78;1801355;79;21027;-79
2022/03/29 05:00:47;;;;;;;32.17;14.00;;;;;;;1.61;57.01;97475.09;1792975;79;21466;-79
2022/03/29 05:03:13;;;;;;;27.98;14.53;;;;;;;1.62;58.10;97475.52;1803707;79;21016;-79
2022/03/29 05:05:40;;;;;;;26.17;13.18;;;;;;;1.60;56.85;97470.29;1799602;78;20968;-80
2022/03/29 05:08:07;;;;;;;24.95;12.85;;;;;;;1.65;57.09;97471.57;1807523;78;20948;-80
2022/03/29 05:10:33;;;;;;;23.47;12.80;;;;;;;1.70;56.77;97464.17;1804019;79;20965;-80
2022/03/29 05:13:00;;;;;;;25.35;12.37;;;;;;;1.73;56.83;97465.05;1803294;79;20945;-80
2022/03/29 05:15:27;;;;;;;27.45;12.95;;;;;;;1.75;56.73;97458.06;1802792;78;21027;-81
2022/03/29 05:17:53;;;;;;;24.70;13.48;;;;;;;1.77;56.56;97458.91;1786404;79;21045;-80
2022/03/29 05:20:20;;;;;;;28.65;12.93;;;;;;;1.81;56.53;97463.27;1790803;80;20993;-81
2022/03/29 05:22:50;;;;;;;27.17;12.95;;;;;;;1.86;56.11;97456.73;1790751;80;21072;-81
2022/03/29 05:25:21;;;;;;;27.05;13.45;;;;;;;1.90;56.17;97455.82;1790879;78;21404;-81
2022/03/29 05:27:49;;;;;;;26.12;12.85;;;;;;;1.91;58.05;97458.44;1813795;78;20980;-79
2022/03/29 05:30:16;;;;;;;24.67;13.65;;;;;;;1.94;56.58;97459.74;1803358;79;21027;-79
2022/03/29 05:32:42;;;;;;;26.65;14.68;;;;;;;1.98;57.08;97459.28;1802876;79;21436;-80
2022/03/29 05:35:11;;;;;;;25.25;13.83;;;;;;;2.03;56.34;97459.28;1770887;79;21007;-80
2022/03/29 05:37:40;;;;;;;24.82;13.00;;;;;;;2.05;56.65;97458.41;1787171;80;21000;-81
2022/03/29 05:40:09;;;;;;;25.62;13.62;;;;;;;2.11;57.09;97459.67;1801678;79;21028;-81
2022/03/29 05:42:42;;;;;;;25.45;13.35;;;;;;;2.15;56.08;97451.83;1800538;80;21035;-80
2022/03/29 05:45:12;;;;;;;31.68;14.20;;;;;;;2.20;56.38;97452.67;1800132;79;20980;-80
2022/03/29 05:50:27;;;;;;;32.60;15.35;;;;;;;2.35;55.77;97449.98;1797838;79;21064;-80
2022/03/29 05:52:56;;;;;;;41.73;14.85;;;;;;;2.43;55.63;97449.93;1774538;79;21011;-81
2022/03/29 05:55:24;;;;;;;35.00;15.08;;;;;;;2.50;55.71;97445.08;1815233;79;20988;-81
2022/03/29 05:57:52;;;;;;;37.45;15.25;;;;;;;2.60;55.42;97450.25;1790098;79;21071;-81
2022/03/29 06:00:23;;;;;;;34.83;15.05;;;;;;;2.67;55.30;97444.12;1791899;79;21060;-81
2022/03/29 06:02:53;;;;;;;25.82;14.28;;;;;;;2.71;55.75;97439.73;1802213;79;21047;-81
2022/03/29 06:05:20;;;;;;;27.70;14.85;;;;;;;2.79;55.22;97438.36;1801496;80;20999;-81
2022/03/29 06:07:47;;;;;;;28.67;15.13;;;;;;;2.88;55.24;97433.06;1795075;79;20996;-82
2022/03/29 06:10:14;;;;;;;34.75;14.90;;;;;;;2.98;54.93;97428.17;1800259;79;21373;-81
2022/03/29 06:12:46;;;;;;;37.10;16.32;;;;;;;3.09;54.97;97428.52;1788796;79;21043;-81
2022/03/29 06:15:13;;;;;;;33.13;16.02;;;;;;;3.20;54.72;97420.58;1790870;80;21063;-81
2022/03/29 06:17:40;;;;;;;30.97;14.80;;;;;;;3.28;54.56;97426.16;1790908;79;21011;-81
2022/03/29 06:20:10;;;;;;;29.87;14.95;;;;;;;3.36;54.32;97422.61;1799058;79;21038;-81
2022/03/29 06:22:42;;;;;;;29.57;14.47;;;;;;;3.43;54.22;97421.66;1803953;79;21301;-81
2022/03/29 06:25:09;;;;;;;28.87;15.72;;;;;;;3.51;54.20;97418.95;1803887;79;20998;-81
2022/03/29 06:27:35;;;;;;;41.13;14.75;;;;;;;3.58;54.26;97421.07;1803596;79;20970;-81
2022/03/29 06:30:05;;;;;;;25.80;14.75;;;;;;;3.66;54.03;97424.48;1795663;78;21319;-81
2022/03/29 06:32:32;;;;;;;31.42;14.05;;;;;;;3.75;54.12;97419.14;1803230;79;21063;-81
2022/03/29 06:34:59;;;;;;;30.60;13.15;;;;;;;3.87;53.74;97425.12;1803321;79;20953;-81
2022/03/29 06:37:25;;;;;;;33.45;14.25;;;;;;;3.96;53.61;97416.68;1803222;79;21076;-81
2022/03/29 06:39:52;;;;;;;27.17;15.25;;;;;;;4.07;53.39;97417.86;1802825;79;21420;-81
2022/03/29 06:42:19;;;;;;;34.00;15.80;;;;;;;4.18;53.24;97418.17;1803861;79;21071;-80
2022/03/29 06:44:46;;;;;;;31.33;16.25;;;;;;;4.29;53.16;97418.91;1803683;79;21074;-81
2022/03/29 06:47:15;;;;;;;38.25;16.17;;;;;;;4.40;53.14;97415.27;1795877;79;21015;-80
2022/03/29 06:49:41;;;;;;;28.62;15.28;;;;;;;4.50;53.16;97415.55;1759464;81;21516;-80
2022/03/29 06:52:10;;;;;;;31.07;15.13;;;;;;;4.62;52.99;97411.42;1769030;81;21065;-80
2022/03/29 06:54:37;;;;;;;34.73;16.45;;;;;;;4.73;52.75;97409.07;1769229;81;21027;-81
2022/03/29 06:57:05;;;;;;;29.23;15.35;;;;;;;4.83;52.58;97409.37;1775557;80;21480;-81
2022/03/29 06:59:32;;;;;;;35.52;15.18;;;;;;;4.96;52.29;97411.79;1791604;79;20972;-81
2022/03/29 07:01:58;;;;;;;30.40;14.73;;;;;;;5.07;52.17;97399.33;1804201;79;20956;-81
2022/03/29 07:04:24;;;;;;;28.40;14.18;;;;;;;5.20;52.15;97401.77;1804411;79;21400;-81
2022/03/29 07:06:51;;;;;;;31.17;15.20;;;;;;;5.32;51.88;97396.73;1804073;79;21014;-81
2022/03/29 07:12:04;;;;;;;29.18;14.75;;;;;;;5.56;51.34;97390.14;1806426;79;21408;-80
2022/03/29 07:14:30;;;;;;;27.27;15.20;;;;;;;5.71;51.09;97380.22;1807501;79;21038;-80
2022/03/29 07:16:57;;;;;;;29.27;14.50;;;;;;;5.84;50.90;97377.77;1795932;79;21431;-80
2022/03/29 07:19:24;;;;;;;28.07;14.20;;;;;;;6.01;50.41;97379.17;1785423;78;20940;-80
2022/03/29 07:21:51;;;;;;;27.67;16.12;;;;;;;6.14;50.15;97374.58;1783656;79;21467;-81
2022/03/29 07:24:17;;;;;;;34.38;16.07;;;;;;;6.29;49.94;97375.98;1798300;79;20951;-81
2022/03/29 07:26:44;;;;;;;33.92;17.35;;;;;;;6.43;49.53;97369.08;1792935;79;20991;-80
2022/03/29 07:29:10;;;;;;;35.83;17.12;;;;;;;6.58;49.28;97362.61;1797428;79;20958;-80
2022/03/29 07:31:37;;;;;;;33.35;18.57;;;;;;;6.72;48.82;97365.77;1789023;79;21479;-81
2022/03/29 07:34:05;;;;;;;34.10;18.67;;;;;;;6.86;47.84;97361.95;1758859;81;21027;-81
2022/03/29 07:36:32;;;;;;;34.60;19.37;;;;;;;7.05;48.02;97357.54;1800367;79;20972;-79
2022/03/29 07:38:59;;;;;;;42.90;22.25;;;;;;;7.20;47.53;97348.35;1764318;79;20996;-81
2022/03/29 07:41:26;;;;;;;41.25;23.47;;;;;;;7.35;47.65;97343.98;1783802;80;21434;-83
2022/03/29 07:43:54;;;;;;;61.25;26.68;;;;;;;7.51;47.15;97343.11;1776468;79;21082;-79
2022/03/29 07:46:21;;;;;;;42.75;24.63;;;;;;;7.67;45.79;97341.36;1775981;79;20979;-81
2022/03/29 07:48:47;;;;;;;46.60;25.02;;;;;;;7.80;46.32;97337.91;1790595;79;22507;-82
2022/03/29 07:51:17;;;;;;;49.23;25.62;;;;;;;7.94;45.87;97336.20;1789146;79;20983;-84
2022/03/29 07:53:45;;;;;;;42.15;23.35;;;;;;;8.06;45.12;97327.91;1785795;80;21060;-78
2022/03/29 07:56:12;;;;;;;34.63;21.87;;;;;;;8.21;44.00;97327.03;1783778;80;21395;-79
2022/03/29 07:58:39;;;;;;;37.40;21.20;;;;;;;8.40;44.45;97327.78;1793735;79;21042;-79
2022/03/29 08:01:06;;;;;;;35.63;20.52;;;;;;;8.58;44.57;97327.23;1776693;79;21057;-79
2022/03/29 08:03:33;;;;;;;40.78;19.95;;;;;;;8.70;44.02;97316.73;1793490;79;21018;-80
2022/03/29 08:06:02;;;;;;;43.33;20.52;;;;;;;8.81;43.60;97316.83;1770758;81;21416;-84
2022/03/29 08:08:31;;;;;;;50.48;23.60;;;;;;;8.90;43.39;97313.88;1788471;79;20972;-85
2022/03/29 08:10:58;;;;;;;46.20;22.17;;;;;;;8.98;43.89;97303.05;1795089;79;20980;-84
2022/03/29 08:13:25;;;;;;;43.50;22.90;;;;;;;9.09;43.80;97298.23;1781773;80;21060;-83
2022/03/29 08:15:53;;;;;;;41.40;22.98;;;;;;;9.22;42.63;97297.34;1796797;80;21055;-84
2022/03/29 08:18:20;;;;;;;44.48;23.12;;;;;;;9.41;42.65;97295.37;1794628;79;20976;-85
2022/03/29 08:20:47;;;;;;;42.88;23.42;;;;;;;9.55;42.72;97284.75;1797797;79;21481;-85
2022/03/29 08:23:14;;;;;;;45.92;23.80;;;;;;;9.65;42.13;97275.55;1793482;79;21042;-84
2022/03/29 08:25:43;;;;;;;37.75;21.05;;;;;;;9.76;41.99;97276.48;1791365;79;21405;-84
2022/03/29 08:28:11;;;;;;;34.80;20.45;;;;;;;9.89;42.12;97270.25;1800522;80;20973;-80
2022/03/29 08:30:41;;;;;;;38.73;19.95;;;;;;;10.01;41.80;97275.53;1791784;78;20983;-81
2022/03/29 08:33:09;;;;;;;41.13;21.62;;;;;;;10.10;41.00;97269.88;1792022;79;21021;-80
2022/03/29 08:35:39;;;;;;;35.83;20.35;;;;;;;10.17;40.20;97261.20;1790635;79;21038;-81
2022/03/29 08:38:06;;;;;;;40.03;21.33;;;;;;;10.30;40.14;97252.33;1784312;80;21352;-82
2022/03/29 08:40:33;;;;;;;39.42;21.60;;;;;;;10.39;40.53;97257.23;1760934;79;21412;-81
2022/03/29 08:43:00;;;;;;;39.00;21.93;;;;;;;10.47;40.25;97248.16;1788425;79;21423;-81
2022/03/29 08:45:30;;;;;;;35.17;20.65;;;;;;;10.54;39.98;97245.19;1763307;80;21042;-81
2022/03/29 08:47:59;;;;;;;36.48;20.90;;;;;;;10.63;39.75;97245.25;1766224;79;21422;-82
2022/03/29 08:50:35;;;;;;;38.35;21.75;;;;;;;10.71;39.50;97242.77;1767603;81;21028;-81
2022/03/29 08:52:59;;;;;;;34.15;21.17;;;;;;;10.78;39.39;97239.78;1745208;81;20972;-81
2022/03/29 08:55:25;;;;;;;42.33;21.90;;;;;;;10.89;39.25;97231.38;1763280;81;20987;-81
2022/03/29 08:57:55;;;;;;;35.58;20.00;;;;;;;11.00;39.38;97222.09;1749683;81;21379;-82
2022/03/29 09:00:26;;;;;;;34.43;21.82;;;;;;;11.11;37.66;97214.97;1747818;81;21035;-82
2022/03/29 09:02:55;;;;;;;31.75;18.48;;;;;;;11.20;37.95;97215.44;1772028;81;21064;-81
2022/03/29 09:05:31;;;;;;;27.60;16.20;;;;;;;11.38;37.67;97217.33;1771879;81;21026;-82
2022/03/29 09:08:01;;;;;;;30.02;17.75;;;;;;;11.64;37.11;97208.62;1770617;81;21420;-80
2022/03/29 09:10:50;;;;;;;33.55;17.42;;;;;;;11.89;37.30;97198.56;1751210;81;20976;-81
2022/03/29 09:13:25;;;;;;;30.97;19.95;;;;;;;12.01;37.06;97197.59;1750742;81;21026;-80
2022/03/29 09:15:55;;;;;;;35.63;21.62;;;;;;;12.17;37.21;97187.13;1766803;81;21061;-81
2022/03/29 09:18:23;;;;;;;35.20;21.85;;;;;;;12.31;37.08;97174.94;1770559;81;21013;-81
2022/03/29 09:21:17;;;;;;;41.83;22.93;;;;;;;12.38;36.82;97166.58;1769049;80;20998;-82
2022/03/29 09:24:04;;;;;;;43.25;22.82;;;;;;;12.58;36.62;97165.19;1770069;80;21015;-80
2022/03/29 09:26:45;;;;;;;48.65;23.52;;;;;;;12.90;36.20;97162.19;1768945;81;21130;-80
2022/03/29 09:29:28;;;;;;;36.65;23.83;;;;;;;13.16;36.66;97158.61;1768318;81;21468;-80
2022/03/29 09:32:17;;;;;;;65.60;39.20;;;;;;;13.29;36.08;97149.98;1768234;81;21011;-80
2022/03/29 09:34:39;;;;;;;45.25;26.93;;;;;;;13.43;36.64;97146.55;1768552;79;21004;-80
2022/03/29 09:37:08;;;;;;;46.58;27.65;;;;;;;13.56;35.96;97139.65;1769759;79;20968;-80
2022/03/29 09:39:44;;;;;;;46.48;26.73;;;;;;;13.69;35.33;97135.83;1767553;80;20992;-80
2022/03/29 09:42:16;;;;;;;44.58;23.35;;;;;;;13.84;35.29;97128.75;1769959;81;21369;-80
2022/03/29 09:44:53;;;;;;;51.80;23.07;;;;;;;14.02;36.11;97119.33;1770144;80;21031;-80
2022/03/29 09:47:22;;;;;;;41.40;21.20;;;;;;;14.18;35.76;97113.11;1770315;81;21036;-80
2022/03/29 09:50:02;;;;;;;36.03;20.57;;;;;;;14.33;35.68;97107.36;1787856;79;21059;-79
2022/03/29 09:52:33;;;;;;;33.15;19.70;;;;;;;14.48;35.40;97102.91;1791607;79;21019;-80
2022/03/29 09:55:22;;;;;;;32.28;18.37;;;;;;;14.62;35.63;97096.77;1791143;79;20987;-80
2022/03/29 09:57:59;;;;;;;34.85;18.50;;;;;;;14.84;35.85;97092.80;1792838;79;21284;-81
2022/03/29 10:00:33;;;;;;;26.17;16.35;;;;;;;15.12;35.17;97085.27;1759860;81;21083;-80
2022/03/29 10:03:03;;;;;;;25.72;16.25;;;;;;;15.63;34.74;97079.86;1789941;79;21460;-81
2022/03/29 10:05:32;;;;;;;25.82;16.50;;;;;;;15.63;34.74;97079.86;1766959;79;21039;-80
2022/03/29 10:10:48;;;;;;;27.27;14.83;;;;;;;16.04;33.10;97063.89;1792853;79;21373;-80
2022/03/29 10:13:17;;;;;;;28.70;19.27;;;;;;;16.33;33.84;97055.72;1792827;79;21428;-78
2022/03/29 10:15:45;;;;;;;27.52;16.50;;;;;;;16.52;33.61;97049.95;1792056;79;20996;-80
2022/03/29 10:18:12;;;;;;;23.15;14.45;;;;;;;16.75;32.77;97054.20;1792966;79;21011;-79
2022/03/29 10:20:39;;;;;;;20.00;12.30;;;;;;;16.94;31.82;97044.37;1776612;80;21016;-81
2022/03/29 10:23:06;;;;;;;17.57;11.22;;;;;;;17.13;32.60;97048.45;1791683;79;21032;-80
2022/03/29 10:25:33;;;;;;;22.52;12.78;;;;;;;17.36;32.30;97042.77;1790952;79;21258;-80
2022/03/29 10:28:01;;;;;;;23.98;11.85;;;;;;;17.52;30.40;97037.16;1772129;79;21397;-79
2022/03/29 10:30:42;;;;;;;20.23;12.53;;;;;;;17.70;31.04;97029.20;1762099;81;21377;-80
2022/03/29 10:33:27;;;;;;;20.43;12.18;;;;;;;17.81;31.25;97026.09;1790896;79;21417;-81
2022/03/29 10:36:09;;;;;;;16.35;11.57;;;;;;;17.94;31.23;97027.37;1794805;79;20976;-81
2022/03/29 10:38:54;;;;;;;19.20;11.40;;;;;;;18.11;30.76;97027.09;1775442;80;20980;-80
2022/03/29 10:41:32;;;;;;;17.32;10.70;;;;;;;18.22;29.93;97018.24;1791291;79;21114;-79
2022/03/29 10:44:08;;;;;;;19.30;11.43;;;;;;;18.43;30.79;97019.25;1780014;80;20996;-80
2022/03/29 10:46:48;;;;;;;17.65;11.33;;;;;;;19.07;28.98;97017.50;1779549;80;21498;-80
2022/03/29 10:49:32;;;;;;;16.65;10.95;;;;;;;20.31;27.49;97002.48;1777141;80;21018;-80
2022/03/29 10:52:09;;;;;;;18.75;11.03;;;;;;;21.62;27.26;96994.66;1778002;80;22280;-80
2022/03/29 10:54:41;;;;;;;20.25;11.12;;;;;;;22.83;25.14;96984.47;1777195;80;21394;-81
2022/03/29 10:57:31;;;;;;;18.48;11.53;;;;;;;23.66;22.43;96976.53;1777888;80;21041;-81
2022/03/29 11:00:18;;;;;;;16.45;11.90;;;;;;;24.20;22.38;96968.92;1767101;81;20979;-81
2022/03/29 11:03:10;;;;;;;17.80;11.48;;;;;;;24.63;21.14;96967.69;1760138;81;21084;-80
2022/03/29 11:06:08;;;;;;;21.57;11.80;;;;;;;25.26;21.13;96962.06;1789695;79;21379;-80
2022/03/29 11:08:47;;;;;;;19.45;12.93;;;;;;;25.88;20.78;96954.59;1788948;79;21039;-80
2022/03/29 11:11:43;;;;;;;14.00;11.65;;;;;;;26.39;20.56;96947.66;1788174;79;21036;-81
2022/03/29 11:14:34;;;;;;;17.20;12.65;;;;;;;27.06;19.98;96938.00;1792627;79;20980;-80
2022/03/29 11:17:22;;;;;;;16.23;13.25;;;;;;;27.60;17.71;96937.74;1786078;79;21001;-80
2022/03/29 11:19:50;;;;;;;20.00;12.33;;;;;;;27.83;18.80;96938.24;1790753;79;21114;-80
2022/03/29 11:22:36;;;;;;;21.68;12.37;;;;;;;28.04;19.08;96923.45;1792300;79;21001;-80
2022/03/29 11:25:09;;;;;;;15.78;12.37;;;;;;;28.55;17.93;96919.25;1794164;79;20980;-79
2022/03/29 11:27:37;;;;;;;15.88;11.57;;;;;;;28.56;17.59;96916.02;1796174;79;21479;-79
2022/03/29 11:30:11;;;;;;;20.27;12.55;;;;;;;28.84;18.29;96909.88;1791749;79;21037;-79
2022/03/29 11:32:45;;;;;;;16.42;11.12;;;;;;;28.85;15.84;96908.34;1790629;79;20988;-80
2022/03/29 11:35:15;;;;;;;16.95;10.80;;;;;;;28.96;16.99;96892.05;1793254;79;20998;-80
2022/03/29 11:37:44;;;;;;;17.10;11.25;;;;;;;29.43;16.76;96894.47;1793345;79;21009;-80
2022/03/29 11:40:17;;;;;;;20.08;10.98;;;;;;;29.93;16.09;96879.24;1779418;80;20954;-80
2022/03/29 11:42:59;;;;;;;12.98;10.43;;;;;;;29.97;15.13;96881.91;1793020;79;21044;-80
2022/03/29 11:45:30;;;;;;;15.90;10.88;;;;;;;30.45;15.70;96880.38;1791147;79;21414;-80